sensor_id;sensor_type;location;lat;lon;timestamp;P1;durP1;ratioP1;P2;durP2;ratioP2
20014;SDS011;61787;42.022;23.078;2023-06-04T00:00:03;11.02;;;5.30;;
20014;SDS011;61787;42.022;23.078;2023-06-04T00:01:05;8.25;;;5.57;;
20014;SDS011;61787;42.022;23.078;2023-06-04T00:02:16;10.07;;;5.30;;
20014;SDS011;61787;42.022;23.078;2023-06-04T00:03:18;12.55;;;5.45;;
20014;SDS011;61787;42.022;23.078;2023-06-04T00:04:20;10.27;;;5.78;;
20014;SDS011;61787;42.022;23.078;2023-06-04T00:05:23;6.78;;;6.07;;
20014;SDS011;61787;42.022;23.078;2023-06-04T00:06:26;8.05;;;5.70;;
20014;SDS011;61787;42.022;23.078;2023-06-04T00:07:28;6.90;;;6.18;;
20014;SDS011;61787;42.022;23.078;2023-06-04T00:08:29;8.57;;;6.22;;
20014;SDS011;61787;42.022;23.078;2023-06-04T00:09:31;5.88;;;5.30;;
20014;SDS011;61787;42.022;23.078;2023-06-04T00:10:33;10.05;;;5.95;;
20014;SDS011;61787;42.022;23.078;2023-06-04T00:11:35;9.18;;;5.60;;
20014;SDS011;61787;42.022;23.078;2023-06-04T00:12:38;10.35;;;5.25;;
20014;SDS011;61787;42.022;23.078;2023-06-04T00:13:39;10.43;;;5.60;;
20014;SDS011;61787;42.022;23.078;2023-06-04T00:14:41;8.93;;;5.50;;
20014;SDS011;61787;42.022;23.078;2023-06-04T00:15:43;7.13;;;5.28;;
20014;SDS011;61787;42.022;23.078;2023-06-04T00:16:44;9.27;;;5.97;;
20014;SDS011;61787;42.022;23.078;2023-06-04T00:17:46;8.20;;;5.65;;
20014;SDS011;61787;42.022;23.078;2023-06-04T00:18:48;7.65;;;5.97;;
20014;SDS011;61787;42.022;23.078;2023-06-04T00:19:49;5.88;;;4.93;;
20014;SDS011;61787;42.022;23.078;2023-06-04T00:20:51;6.28;;;5.35;;
20014;SDS011;61787;42.022;23.078;2023-06-04T00:21:53;7.38;;;6.10;;
20014;SDS011;61787;42.022;23.078;2023-06-04T00:22:54;6.55;;;5.53;;
20014;SDS011;61787;42.022;23.078;2023-06-04T00:23:56;7.38;;;6.63;;
20014;SDS011;61787;42.022;23.078;2023-06-04T00:24:58;6.55;;;5.88;;
20014;SDS011;61787;42.022;23.078;2023-06-04T00:26:00;9.43;;;6.05;;
20014;SDS011;61787;42.022;23.078;2023-06-04T00:27:01;8.38;;;6.10;;
20014;SDS011;61787;42.022;23.078;2023-06-04T00:28:03;12.60;;;6.35;;
20014;SDS011;61787;42.022;23.078;2023-06-04T00:29:05;9.98;;;5.60;;
20014;SDS011;61787;42.022;23.078;2023-06-04T00:30:06;6.03;;;5.53;;
20014;SDS011;61787;42.022;23.078;2023-06-04T00:31:08;12.60;;;5.35;;
20014;SDS011;61787;42.022;23.078;2023-06-04T00:32:11;7.00;;;5.35;;
20014;SDS011;61787;42.022;23.078;2023-06-04T00:33:13;6.32;;;5.72;;
20014;SDS011;61787;42.022;23.078;2023-06-04T00:35:18;9.20;;;6.53;;
20014;SDS011;61787;42.022;23.078;2023-06-04T00:36:20;7.60;;;6.88;;
20014;SDS011;61787;42.022;23.078;2023-06-04T00:37:22;8.70;;;6.28;;
20014;SDS011;61787;42.022;23.078;2023-06-04T00:38:24;10.40;;;6.15;;
20014;SDS011;61787;42.022;23.078;2023-06-04T00:39:25;8.30;;;6.63;;
20014;SDS011;61787;42.022;23.078;2023-06-04T00:40:27;7.43;;;6.50;;
20014;SDS011;61787;42.022;23.078;2023-06-04T00:41:28;9.65;;;6.57;;
20014;SDS011;61787;42.022;23.078;2023-06-04T00:42:30;10.73;;;6.57;;
20014;SDS011;61787;42.022;23.078;2023-06-04T00:43:32;8.63;;;5.82;;
20014;SDS011;61787;42.022;23.078;2023-06-04T00:44:34;8.60;;;5.90;;
20014;SDS011;61787;42.022;23.078;2023-06-04T00:45:37;9.48;;;6.13;;
20014;SDS011;61787;42.022;23.078;2023-06-04T00:46:39;10.48;;;5.60;;
20014;SDS011;61787;42.022;23.078;2023-06-04T00:47:40;8.35;;;5.82;;
20014;SDS011;61787;42.022;23.078;2023-06-04T00:48:42;9.25;;;6.00;;
20014;SDS011;61787;42.022;23.078;2023-06-04T00:49:45;6.87;;;6.10;;
20014;SDS011;61787;42.022;23.078;2023-06-04T00:50:47;6.38;;;5.40;;
20014;SDS011;61787;42.022;23.078;2023-06-04T00:51:49;8.02;;;6.00;;
20014;SDS011;61787;42.022;23.078;2023-06-04T00:52:51;7.15;;;5.10;;
20014;SDS011;61787;42.022;23.078;2023-06-04T00:53:53;10.25;;;5.65;;
20014;SDS011;61787;42.022;23.078;2023-06-04T00:54:55;6.05;;;5.35;;
20014;SDS011;61787;42.022;23.078;2023-06-04T00:55:57;7.47;;;5.20;;
20014;SDS011;61787;42.022;23.078;2023-06-04T00:56:59;7.13;;;5.53;;
20014;SDS011;61787;42.022;23.078;2023-06-04T00:58:00;10.07;;;6.00;;
20014;SDS011;61787;42.022;23.078;2023-06-04T00:59:03;8.73;;;5.60;;
20014;SDS011;61787;42.022;23.078;2023-06-04T01:00:08;6.40;;;5.75;;
20014;SDS011;61787;42.022;23.078;2023-06-04T01:01:25;8.30;;;6.13;;
20014;SDS011;61787;42.022;23.078;2023-06-04T01:02:33;9.93;;;5.97;;
20014;SDS011;61787;42.022;23.078;2023-06-04T01:03:39;8.73;;;6.55;;
20014;SDS011;61787;42.022;23.078;2023-06-04T01:07:22;10.13;;;5.82;;
20014;SDS011;61787;42.022;23.078;2023-06-04T01:08:26;10.60;;;5.75;;
20014;SDS011;61787;42.022;23.078;2023-06-04T01:09:28;7.00;;;6.22;;
20014;SDS011;61787;42.022;23.078;2023-06-04T01:10:31;9.38;;;6.80;;
20014;SDS011;61787;42.022;23.078;2023-06-04T01:11:34;11.30;;;8.10;;
20014;SDS011;61787;42.022;23.078;2023-06-04T01:12:39;8.60;;;7.80;;
20014;SDS011;61787;42.022;23.078;2023-06-04T01:13:41;11.30;;;9.60;;
20014;SDS011;61787;42.022;23.078;2023-06-04T01:14:43;12.27;;;10.40;;
20014;SDS011;61787;42.022;23.078;2023-06-04T01:15:45;14.38;;;11.20;;
20014;SDS011;61787;42.022;23.078;2023-06-04T01:16:49;13.07;;;11.10;;
20014;SDS011;61787;42.022;23.078;2023-06-04T01:18:02;13.10;;;10.50;;
20014;SDS011;61787;42.022;23.078;2023-06-04T01:19:11;11.97;;;10.70;;
20014;SDS011;61787;42.022;23.078;2023-06-04T01:20:42;10.97;;;9.87;;
20014;SDS011;61787;42.022;23.078;2023-06-04T01:21:48;13.00;;;11.13;;
20014;SDS011;61787;42.022;23.078;2023-06-04T01:23:58;13.60;;;10.90;;
20014;SDS011;61787;42.022;23.078;2023-06-04T01:25:04;14.30;;;11.47;;
20014;SDS011;61787;42.022;23.078;2023-06-04T01:26:08;15.10;;;11.70;;
20014;SDS011;61787;42.022;23.078;2023-06-04T01:27:11;15.67;;;11.80;;
20014;SDS011;61787;42.022;23.078;2023-06-04T01:28:13;16.40;;;10.97;;
20014;SDS011;61787;42.022;23.078;2023-06-04T01:29:17;12.03;;;10.57;;
20014;SDS011;61787;42.022;23.078;2023-06-04T01:30:21;13.60;;;11.47;;
20014;SDS011;61787;42.022;23.078;2023-06-04T01:31:25;13.27;;;11.87;;
20014;SDS011;61787;42.022;23.078;2023-06-04T01:32:27;15.87;;;11.87;;
20014;SDS011;61787;42.022;23.078;2023-06-04T01:33:29;14.90;;;12.00;;
20014;SDS011;61787;42.022;23.078;2023-06-04T01:34:31;15.73;;;10.87;;
20014;SDS011;61787;42.022;23.078;2023-06-04T01:35:45;15.50;;;10.20;;
20014;SDS011;61787;42.022;23.078;2023-06-04T01:36:46;11.52;;;8.68;;
20014;SDS011;61787;42.022;23.078;2023-06-04T01:37:48;9.40;;;7.67;;
20014;SDS011;61787;42.022;23.078;2023-06-04T01:38:51;8.70;;;7.20;;
20014;SDS011;61787;42.022;23.078;2023-06-04T01:39:52;7.67;;;6.87;;
20014;SDS011;61787;42.022;23.078;2023-06-04T01:40:54;12.03;;;6.60;;
20014;SDS011;61787;42.022;23.078;2023-06-04T01:41:57;7.68;;;6.68;;
20014;SDS011;61787;42.022;23.078;2023-06-04T01:42:59;8.30;;;6.50;;
20014;SDS011;61787;42.022;23.078;2023-06-04T01:44:00;11.53;;;8.10;;
20014;SDS011;61787;42.022;23.078;2023-06-04T01:45:02;10.10;;;7.80;;
20014;SDS011;61787;42.022;23.078;2023-06-04T01:46:04;10.03;;;8.13;;
20014;SDS011;61787;42.022;23.078;2023-06-04T01:47:06;9.30;;;7.30;;
20014;SDS011;61787;42.022;23.078;2023-06-04T01:48:08;9.70;;;7.80;;
20014;SDS011;61787;42.022;23.078;2023-06-04T01:49:09;10.17;;;7.50;;
20014;SDS011;61787;42.022;23.078;2023-06-04T01:50:11;9.40;;;7.67;;
20014;SDS011;61787;42.022;23.078;2023-06-04T01:51:13;8.87;;;7.40;;
20014;SDS011;61787;42.022;23.078;2023-06-04T01:52:15;9.10;;;7.33;;
20014;SDS011;61787;42.022;23.078;2023-06-04T01:53:17;8.93;;;7.28;;
20014;SDS011;61787;42.022;23.078;2023-06-04T01:54:19;8.60;;;7.57;;
20014;SDS011;61787;42.022;23.078;2023-06-04T01:55:21;9.85;;;7.10;;
20014;SDS011;61787;42.022;23.078;2023-06-04T01:56:22;11.82;;;7.47;;
20014;SDS011;61787;42.022;23.078;2023-06-04T01:57:24;8.40;;;7.55;;
20014;SDS011;61787;42.022;23.078;2023-06-04T01:58:26;10.13;;;8.23;;
20014;SDS011;61787;42.022;23.078;2023-06-04T01:59:28;11.70;;;7.70;;
20014;SDS011;61787;42.022;23.078;2023-06-04T02:00:30;9.50;;;7.38;;
20014;SDS011;61787;42.022;23.078;2023-06-04T02:01:31;13.65;;;7.93;;
20014;SDS011;61787;42.022;23.078;2023-06-04T02:02:33;14.75;;;8.23;;
20014;SDS011;61787;42.022;23.078;2023-06-04T02:03:35;8.90;;;7.93;;
20014;SDS011;61787;42.022;23.078;2023-06-04T02:04:42;10.98;;;8.10;;
20014;SDS011;61787;42.022;23.078;2023-06-04T02:05:44;12.93;;;7.90;;
20014;SDS011;61787;42.022;23.078;2023-06-04T02:06:47;10.32;;;7.97;;
20014;SDS011;61787;42.022;23.078;2023-06-04T02:07:50;12.38;;;8.00;;
20014;SDS011;61787;42.022;23.078;2023-06-04T02:08:52;9.52;;;8.55;;
20014;SDS011;61787;42.022;23.078;2023-06-04T02:09:55;10.23;;;8.23;;
20014;SDS011;61787;42.022;23.078;2023-06-04T02:10:57;9.25;;;8.00;;
20014;SDS011;61787;42.022;23.078;2023-06-04T02:11:58;12.07;;;8.20;;
20014;SDS011;61787;42.022;23.078;2023-06-04T02:13:00;10.45;;;7.97;;
20014;SDS011;61787;42.022;23.078;2023-06-04T02:14:04;11.75;;;8.05;;
20014;SDS011;61787;42.022;23.078;2023-06-04T02:15:06;9.48;;;6.55;;
20014;SDS011;61787;42.022;23.078;2023-06-04T02:16:11;8.60;;;5.65;;
20014;SDS011;61787;42.022;23.078;2023-06-04T02:17:12;9.18;;;5.70;;
20014;SDS011;61787;42.022;23.078;2023-06-04T02:18:15;7.05;;;5.55;;
20014;SDS011;61787;42.022;23.078;2023-06-04T02:19:19;6.30;;;5.57;;
20014;SDS011;61787;42.022;23.078;2023-06-04T02:20:20;13.70;;;6.15;;
20014;SDS011;61787;42.022;23.078;2023-06-04T02:21:22;10.10;;;6.82;;
20014;SDS011;61787;42.022;23.078;2023-06-04T02:22:24;9.25;;;5.97;;
20014;SDS011;61787;42.022;23.078;2023-06-04T02:23:26;9.45;;;6.20;;
20014;SDS011;61787;42.022;23.078;2023-06-04T02:24:28;8.75;;;5.70;;
20014;SDS011;61787;42.022;23.078;2023-06-04T02:25:29;11.20;;;6.63;;
20014;SDS011;61787;42.022;23.078;2023-06-04T02:26:31;11.32;;;6.72;;
20014;SDS011;61787;42.022;23.078;2023-06-04T02:27:33;8.55;;;6.32;;
20014;SDS011;61787;42.022;23.078;2023-06-04T02:28:35;9.77;;;6.43;;
20014;SDS011;61787;42.022;23.078;2023-06-04T02:29:38;8.02;;;6.22;;
20014;SDS011;61787;42.022;23.078;2023-06-04T02:30:40;9.55;;;6.82;;
20014;SDS011;61787;42.022;23.078;2023-06-04T02:31:41;9.90;;;6.70;;
20014;SDS011;61787;42.022;23.078;2023-06-04T02:32:43;11.55;;;7.60;;
20014;SDS011;61787;42.022;23.078;2023-06-04T02:33:51;11.85;;;6.68;;
20014;SDS011;61787;42.022;23.078;2023-06-04T02:34:53;10.52;;;7.05;;
20014;SDS011;61787;42.022;23.078;2023-06-04T02:35:55;12.43;;;6.25;;
20014;SDS011;61787;42.022;23.078;2023-06-04T02:36:57;10.77;;;6.47;;
20014;SDS011;61787;42.022;23.078;2023-06-04T02:37:59;10.57;;;6.68;;
20014;SDS011;61787;42.022;23.078;2023-06-04T02:39:01;9.70;;;6.75;;
20014;SDS011;61787;42.022;23.078;2023-06-04T02:40:04;21.38;;;7.15;;
20014;SDS011;61787;42.022;23.078;2023-06-04T02:41:06;20.13;;;8.10;;
20014;SDS011;61787;42.022;23.078;2023-06-04T02:42:08;14.60;;;7.47;;
20014;SDS011;61787;42.022;23.078;2023-06-04T02:43:10;15.43;;;7.80;;
20014;SDS011;61787;42.022;23.078;2023-06-04T02:44:12;11.52;;;7.07;;
20014;SDS011;61787;42.022;23.078;2023-06-04T02:45:14;12.00;;;7.43;;
20014;SDS011;61787;42.022;23.078;2023-06-04T02:46:15;11.63;;;7.47;;
20014;SDS011;61787;42.022;23.078;2023-06-04T02:47:17;13.70;;;8.55;;
20014;SDS011;61787;42.022;23.078;2023-06-04T02:48:20;11.85;;;7.78;;
20014;SDS011;61787;42.022;23.078;2023-06-04T02:49:22;11.50;;;7.65;;
20014;SDS011;61787;42.022;23.078;2023-06-04T02:50:24;11.63;;;7.80;;
20014;SDS011;61787;42.022;23.078;2023-06-04T02:51:26;12.05;;;6.95;;
20014;SDS011;61787;42.022;23.078;2023-06-04T02:52:29;13.63;;;6.57;;
20014;SDS011;61787;42.022;23.078;2023-06-04T02:53:31;10.45;;;6.82;;
20014;SDS011;61787;42.022;23.078;2023-06-04T02:54:33;8.98;;;6.50;;
20014;SDS011;61787;42.022;23.078;2023-06-04T02:55:35;12.70;;;6.43;;
20014;SDS011;61787;42.022;23.078;2023-06-04T02:56:37;9.85;;;6.60;;
20014;SDS011;61787;42.022;23.078;2023-06-04T02:57:39;11.13;;;7.03;;
20014;SDS011;61787;42.022;23.078;2023-06-04T02:58:54;11.00;;;6.70;;
20014;SDS011;61787;42.022;23.078;2023-06-04T02:59:57;7.93;;;6.07;;
20014;SDS011;61787;42.022;23.078;2023-06-04T03:00:59;12.85;;;6.75;;
20014;SDS011;61787;42.022;23.078;2023-06-04T03:02:01;7.88;;;6.05;;
20014;SDS011;61787;42.022;23.078;2023-06-04T03:03:02;12.15;;;7.25;;
20014;SDS011;61787;42.022;23.078;2023-06-04T03:04:04;10.27;;;6.85;;
20014;SDS011;61787;42.022;23.078;2023-06-04T03:05:08;12.05;;;7.03;;
20014;SDS011;61787;42.022;23.078;2023-06-04T03:06:12;11.55;;;7.10;;
20014;SDS011;61787;42.022;23.078;2023-06-04T03:07:15;8.40;;;7.32;;
20014;SDS011;61787;42.022;23.078;2023-06-04T03:08:21;12.00;;;7.50;;
20014;SDS011;61787;42.022;23.078;2023-06-04T03:09:23;11.30;;;7.10;;
20014;SDS011;61787;42.022;23.078;2023-06-04T03:10:25;9.88;;;6.88;;
20014;SDS011;61787;42.022;23.078;2023-06-04T03:11:27;10.75;;;7.68;;
20014;SDS011;61787;42.022;23.078;2023-06-04T03:12:29;12.32;;;7.28;;
20014;SDS011;61787;42.022;23.078;2023-06-04T03:13:30;11.27;;;7.63;;
20014;SDS011;61787;42.022;23.078;2023-06-04T03:14:32;9.37;;;7.70;;
20014;SDS011;61787;42.022;23.078;2023-06-04T03:15:34;11.60;;;7.77;;
20014;SDS011;61787;42.022;23.078;2023-06-04T03:16:40;11.37;;;7.30;;
20014;SDS011;61787;42.022;23.078;2023-06-04T03:17:42;11.27;;;7.47;;
20014;SDS011;61787;42.022;23.078;2023-06-04T03:18:45;13.47;;;7.83;;
20014;SDS011;61787;42.022;23.078;2023-06-04T03:19:47;12.20;;;7.40;;
20014;SDS011;61787;42.022;23.078;2023-06-04T03:20:49;11.73;;;7.33;;
20014;SDS011;61787;42.022;23.078;2023-06-04T03:21:51;9.33;;;6.73;;
20014;SDS011;61787;42.022;23.078;2023-06-04T03:22:53;8.68;;;6.82;;
20014;SDS011;61787;42.022;23.078;2023-06-04T03:23:55;10.75;;;7.00;;
20014;SDS011;61787;42.022;23.078;2023-06-04T03:24:57;10.50;;;6.83;;
20014;SDS011;61787;42.022;23.078;2023-06-04T03:25:58;7.73;;;6.83;;
20014;SDS011;61787;42.022;23.078;2023-06-04T03:27:00;8.23;;;6.82;;
20014;SDS011;61787;42.022;23.078;2023-06-04T03:28:02;11.30;;;7.03;;
20014;SDS011;61787;42.022;23.078;2023-06-04T03:29:04;12.50;;;7.78;;
20014;SDS011;61787;42.022;23.078;2023-06-04T03:30:05;9.80;;;7.28;;
20014;SDS011;61787;42.022;23.078;2023-06-04T03:31:07;9.35;;;7.22;;
20014;SDS011;61787;42.022;23.078;2023-06-04T03:32:10;17.45;;;7.57;;
20014;SDS011;61787;42.022;23.078;2023-06-04T03:33:12;9.18;;;6.75;;
20014;SDS011;61787;42.022;23.078;2023-06-04T03:34:13;9.77;;;6.45;;
20014;SDS011;61787;42.022;23.078;2023-06-04T03:35:15;7.47;;;6.30;;
20014;SDS011;61787;42.022;23.078;2023-06-04T03:36:17;9.18;;;6.28;;
20014;SDS011;61787;42.022;23.078;2023-06-04T03:37:18;9.82;;;6.28;;
20014;SDS011;61787;42.022;23.078;2023-06-04T03:38:20;14.88;;;6.53;;
20014;SDS011;61787;42.022;23.078;2023-06-04T03:39:22;11.43;;;6.18;;
20014;SDS011;61787;42.022;23.078;2023-06-04T03:40:24;6.82;;;6.00;;
20014;SDS011;61787;42.022;23.078;2023-06-04T03:41:25;8.53;;;5.60;;
20014;SDS011;61787;42.022;23.078;2023-06-04T03:42:27;6.20;;;5.60;;
20014;SDS011;61787;42.022;23.078;2023-06-04T03:43:29;7.22;;;5.70;;
20014;SDS011;61787;42.022;23.078;2023-06-04T03:44:30;10.60;;;6.03;;
20014;SDS011;61787;42.022;23.078;2023-06-04T03:45:32;7.00;;;5.40;;
20014;SDS011;61787;42.022;23.078;2023-06-04T03:46:34;9.35;;;6.38;;
20014;SDS011;61787;42.022;23.078;2023-06-04T03:47:37;11.82;;;6.45;;
20014;SDS011;61787;42.022;23.078;2023-06-04T03:48:41;6.55;;;5.90;;
20014;SDS011;61787;42.022;23.078;2023-06-04T03:49:43;7.50;;;6.50;;
20014;SDS011;61787;42.022;23.078;2023-06-04T03:50:44;10.45;;;6.00;;
20014;SDS011;61787;42.022;23.078;2023-06-04T03:51:47;8.93;;;6.63;;
20014;SDS011;61787;42.022;23.078;2023-06-04T03:52:49;8.90;;;6.90;;
20014;SDS011;61787;42.022;23.078;2023-06-04T03:53:50;7.45;;;6.30;;
20014;SDS011;61787;42.022;23.078;2023-06-04T03:54:52;8.02;;;5.90;;
20014;SDS011;61787;42.022;23.078;2023-06-04T03:55:54;9.07;;;6.35;;
20014;SDS011;61787;42.022;23.078;2023-06-04T03:56:56;7.85;;;6.60;;
20014;SDS011;61787;42.022;23.078;2023-06-04T03:57:58;8.15;;;6.32;;
20014;SDS011;61787;42.022;23.078;2023-06-04T03:59:00;10.20;;;6.43;;
20014;SDS011;61787;42.022;23.078;2023-06-04T04:00:02;6.72;;;5.97;;
20014;SDS011;61787;42.022;23.078;2023-06-04T04:01:04;7.10;;;6.05;;
20014;SDS011;61787;42.022;23.078;2023-06-04T04:02:06;7.78;;;6.53;;
20014;SDS011;61787;42.022;23.078;2023-06-04T04:03:08;7.78;;;5.82;;
20014;SDS011;61787;42.022;23.078;2023-06-04T04:04:11;8.93;;;5.60;;
20014;SDS011;61787;42.022;23.078;2023-06-04T04:05:13;9.85;;;6.05;;
20014;SDS011;61787;42.022;23.078;2023-06-04T04:06:17;9.18;;;5.97;;
20014;SDS011;61787;42.022;23.078;2023-06-04T04:07:20;10.02;;;6.35;;
20014;SDS011;61787;42.022;23.078;2023-06-04T04:08:22;8.88;;;6.20;;
20014;SDS011;61787;42.022;23.078;2023-06-04T04:09:24;7.18;;;5.90;;
20014;SDS011;61787;42.022;23.078;2023-06-04T04:10:26;8.73;;;6.20;;
20014;SDS011;61787;42.022;23.078;2023-06-04T04:11:27;9.75;;;5.93;;
20014;SDS011;61787;42.022;23.078;2023-06-04T04:12:29;10.30;;;6.03;;
20014;SDS011;61787;42.022;23.078;2023-06-04T04:13:31;8.05;;;6.00;;
20014;SDS011;61787;42.022;23.078;2023-06-04T04:14:32;7.82;;;6.00;;
20014;SDS011;61787;42.022;23.078;2023-06-04T04:15:34;7.43;;;5.95;;
20014;SDS011;61787;42.022;23.078;2023-06-04T04:16:36;11.85;;;6.38;;
20014;SDS011;61787;42.022;23.078;2023-06-04T04:17:37;8.75;;;6.05;;
20014;SDS011;61787;42.022;23.078;2023-06-04T04:18:41;7.60;;;6.20;;
20014;SDS011;61787;42.022;23.078;2023-06-04T04:19:44;10.77;;;7.10;;
20014;SDS011;61787;42.022;23.078;2023-06-04T04:20:46;10.30;;;6.80;;
20014;SDS011;61787;42.022;23.078;2023-06-04T04:21:48;7.93;;;6.22;;
20014;SDS011;61787;42.022;23.078;2023-06-04T04:22:50;11.32;;;6.13;;
20014;SDS011;61787;42.022;23.078;2023-06-04T04:23:52;9.90;;;6.32;;
20014;SDS011;61787;42.022;23.078;2023-06-04T04:24:53;10.48;;;6.05;;
20014;SDS011;61787;42.022;23.078;2023-06-04T04:25:55;9.15;;;6.20;;
20014;SDS011;61787;42.022;23.078;2023-06-04T04:26:57;10.30;;;6.55;;
20014;SDS011;61787;42.022;23.078;2023-06-04T04:28:00;8.27;;;6.35;;
20014;SDS011;61787;42.022;23.078;2023-06-04T04:29:02;9.85;;;6.47;;
20014;SDS011;61787;42.022;23.078;2023-06-04T04:30:03;12.68;;;6.82;;
20014;SDS011;61787;42.022;23.078;2023-06-04T04:31:06;9.02;;;6.43;;
20014;SDS011;61787;42.022;23.078;2023-06-04T04:32:10;11.48;;;6.20;;
20014;SDS011;61787;42.022;23.078;2023-06-04T04:33:12;9.90;;;6.38;;
20014;SDS011;61787;42.022;23.078;2023-06-04T04:34:17;9.40;;;6.13;;
20014;SDS011;61787;42.022;23.078;2023-06-04T04:35:21;9.15;;;5.60;;
20014;SDS011;61787;42.022;23.078;2023-06-04T04:36:25;5.88;;;5.28;;
20014;SDS011;61787;42.022;23.078;2023-06-04T04:37:27;6.20;;;5.30;;
20014;SDS011;61787;42.022;23.078;2023-06-04T04:38:29;7.28;;;4.65;;
20014;SDS011;61787;42.022;23.078;2023-06-04T04:39:32;5.78;;;5.22;;
20014;SDS011;61787;42.022;23.078;2023-06-04T04:40:34;6.45;;;4.90;;
20014;SDS011;61787;42.022;23.078;2023-06-04T04:41:36;6.90;;;4.97;;
20014;SDS011;61787;42.022;23.078;2023-06-04T04:42:39;8.48;;;4.88;;
20014;SDS011;61787;42.022;23.078;2023-06-04T04:43:40;5.30;;;4.80;;
20014;SDS011;61787;42.022;23.078;2023-06-04T04:44:42;7.47;;;4.93;;
20014;SDS011;61787;42.022;23.078;2023-06-04T04:45:48;6.93;;;4.45;;
20014;SDS011;61787;42.022;23.078;2023-06-04T04:46:50;6.25;;;4.85;;
20014;SDS011;61787;42.022;23.078;2023-06-04T04:47:51;6.40;;;4.97;;
20014;SDS011;61787;42.022;23.078;2023-06-04T04:48:53;7.83;;;5.33;;
20014;SDS011;61787;42.022;23.078;2023-06-04T04:49:54;8.20;;;5.10;;
20014;SDS011;61787;42.022;23.078;2023-06-04T04:50:56;6.10;;;4.97;;
20014;SDS011;61787;42.022;23.078;2023-06-04T04:51:58;9.43;;;5.03;;
20014;SDS011;61787;42.022;23.078;2023-06-04T04:53:00;6.88;;;5.15;;
20014;SDS011;61787;42.022;23.078;2023-06-04T04:54:02;7.47;;;4.95;;
20014;SDS011;61787;42.022;23.078;2023-06-04T04:55:04;10.40;;;5.10;;
20014;SDS011;61787;42.022;23.078;2023-06-04T04:56:06;6.10;;;5.50;;
20014;SDS011;61787;42.022;23.078;2023-06-04T04:57:08;8.37;;;6.00;;
20014;SDS011;61787;42.022;23.078;2023-06-04T04:58:14;9.97;;;6.23;;
20014;SDS011;61787;42.022;23.078;2023-06-04T04:59:16;11.10;;;5.83;;
20014;SDS011;61787;42.022;23.078;2023-06-04T05:00:18;6.57;;;5.47;;
20014;SDS011;61787;42.022;23.078;2023-06-04T05:01:21;6.17;;;5.20;;
20014;SDS011;61787;42.022;23.078;2023-06-04T05:02:22;10.10;;;6.20;;
20014;SDS011;61787;42.022;23.078;2023-06-04T05:03:24;10.10;;;5.70;;
20014;SDS011;61787;42.022;23.078;2023-06-04T05:04:26;7.40;;;6.00;;
20014;SDS011;61787;42.022;23.078;2023-06-04T05:05:27;9.53;;;6.03;;
20014;SDS011;61787;42.022;23.078;2023-06-04T05:06:29;10.07;;;6.30;;
20014;SDS011;61787;42.022;23.078;2023-06-04T05:07:31;10.40;;;6.80;;
20014;SDS011;61787;42.022;23.078;2023-06-04T05:08:33;9.57;;;6.60;;
20014;SDS011;61787;42.022;23.078;2023-06-04T05:09:35;10.43;;;6.30;;
20014;SDS011;61787;42.022;23.078;2023-06-04T05:10:37;9.93;;;6.37;;
20014;SDS011;61787;42.022;23.078;2023-06-04T05:11:39;7.27;;;6.30;;
20014;SDS011;61787;42.022;23.078;2023-06-04T05:12:50;8.77;;;6.77;;
20014;SDS011;61787;42.022;23.078;2023-06-04T05:13:55;11.97;;;6.60;;
20014;SDS011;61787;42.022;23.078;2023-06-04T05:14:57;8.20;;;6.70;;
20014;SDS011;61787;42.022;23.078;2023-06-04T05:15:59;7.57;;;6.67;;
20014;SDS011;61787;42.022;23.078;2023-06-04T05:17:06;7.57;;;6.57;;
20014;SDS011;61787;42.022;23.078;2023-06-04T05:18:08;12.03;;;6.83;;
20014;SDS011;61787;42.022;23.078;2023-06-04T05:19:09;9.57;;;6.43;;
20014;SDS011;61787;42.022;23.078;2023-06-04T05:20:12;8.03;;;6.90;;
20014;SDS011;61787;42.022;23.078;2023-06-04T05:21:15;12.80;;;7.20;;
20014;SDS011;61787;42.022;23.078;2023-06-04T05:22:17;10.40;;;6.80;;
20014;SDS011;61787;42.022;23.078;2023-06-04T05:23:24;9.57;;;7.73;;
20014;SDS011;61787;42.022;23.078;2023-06-04T05:24:26;14.10;;;7.83;;
20014;SDS011;61787;42.022;23.078;2023-06-04T05:25:30;12.83;;;8.37;;
20014;SDS011;61787;42.022;23.078;2023-06-04T05:26:32;9.20;;;7.80;;
20014;SDS011;61787;42.022;23.078;2023-06-04T05:27:34;9.70;;;7.80;;
20014;SDS011;61787;42.022;23.078;2023-06-04T05:28:36;8.83;;;7.57;;
20014;SDS011;61787;42.022;23.078;2023-06-04T05:29:42;8.73;;;7.77;;
20014;SDS011;61787;42.022;23.078;2023-06-04T05:30:45;11.73;;;7.97;;
20014;SDS011;61787;42.022;23.078;2023-06-04T05:31:50;8.57;;;7.70;;
20014;SDS011;61787;42.022;23.078;2023-06-04T05:32:52;11.73;;;8.60;;
20014;SDS011;61787;42.022;23.078;2023-06-04T05:33:55;16.93;;;9.13;;
20014;SDS011;61787;42.022;23.078;2023-06-04T05:34:56;9.70;;;8.70;;
20014;SDS011;61787;42.022;23.078;2023-06-04T05:35:58;12.17;;;8.93;;
20014;SDS011;61787;42.022;23.078;2023-06-04T05:37:00;11.50;;;8.50;;
20014;SDS011;61787;42.022;23.078;2023-06-04T05:38:02;13.32;;;9.25;;
20014;SDS011;61787;42.022;23.078;2023-06-04T05:39:04;8.98;;;8.07;;
20014;SDS011;61787;42.022;23.078;2023-06-04T05:40:06;12.73;;;8.35;;
20014;SDS011;61787;42.022;23.078;2023-06-04T05:41:08;12.38;;;8.20;;
20014;SDS011;61787;42.022;23.078;2023-06-04T05:42:10;15.20;;;8.65;;
20014;SDS011;61787;42.022;23.078;2023-06-04T05:43:11;12.33;;;9.07;;
20014;SDS011;61787;42.022;23.078;2023-06-04T05:44:13;10.83;;;8.73;;
20014;SDS011;61787;42.022;23.078;2023-06-04T05:45:15;10.32;;;8.93;;
20014;SDS011;61787;42.022;23.078;2023-06-04T05:46:17;10.20;;;7.70;;
20014;SDS011;61787;42.022;23.078;2023-06-04T05:47:19;12.00;;;9.07;;
20014;SDS011;61787;42.022;23.078;2023-06-04T05:48:20;14.20;;;8.05;;
20014;SDS011;61787;42.022;23.078;2023-06-04T05:49:22;11.85;;;8.60;;
20014;SDS011;61787;42.022;23.078;2023-06-04T05:50:25;13.63;;;8.60;;
20014;SDS011;61787;42.022;23.078;2023-06-04T05:51:27;10.15;;;8.23;;
20014;SDS011;61787;42.022;23.078;2023-06-04T05:52:28;12.93;;;8.35;;
20014;SDS011;61787;42.022;23.078;2023-06-04T05:53:30;11.52;;;7.80;;
20014;SDS011;61787;42.022;23.078;2023-06-04T05:54:32;8.75;;;7.80;;
20014;SDS011;61787;42.022;23.078;2023-06-04T05:55:34;8.85;;;7.95;;
20014;SDS011;61787;42.022;23.078;2023-06-04T05:56:35;10.18;;;7.95;;
20014;SDS011;61787;42.022;23.078;2023-06-04T05:57:37;10.68;;;8.15;;
20014;SDS011;61787;42.022;23.078;2023-06-04T05:58:40;12.30;;;8.35;;
20014;SDS011;61787;42.022;23.078;2023-06-04T05:59:43;12.30;;;7.93;;
20014;SDS011;61787;42.022;23.078;2023-06-04T06:00:44;9.52;;;8.30;;
20014;SDS011;61787;42.022;23.078;2023-06-04T06:01:46;11.68;;;7.82;;
20014;SDS011;61787;42.022;23.078;2023-06-04T06:02:49;11.40;;;7.88;;
20014;SDS011;61787;42.022;23.078;2023-06-04T06:03:52;9.27;;;7.75;;
20014;SDS011;61787;42.022;23.078;2023-06-04T06:04:54;10.55;;;7.30;;
20014;SDS011;61787;42.022;23.078;2023-06-04T06:05:55;12.25;;;7.88;;
20014;SDS011;61787;42.022;23.078;2023-06-04T06:06:58;12.43;;;7.20;;
20014;SDS011;61787;42.022;23.078;2023-06-04T06:08:00;8.55;;;7.65;;
20014;SDS011;61787;42.022;23.078;2023-06-04T06:09:01;8.98;;;7.75;;
20014;SDS011;61787;42.022;23.078;2023-06-04T06:10:03;9.77;;;7.57;;
20014;SDS011;61787;42.022;23.078;2023-06-04T06:11:05;10.88;;;7.30;;
20014;SDS011;61787;42.022;23.078;2023-06-04T06:12:11;10.88;;;6.90;;
20014;SDS011;61787;42.022;23.078;2023-06-04T06:13:13;8.98;;;7.13;;